Villa Mercedes, Puerto Rico
Current Conditions -  °F | °C
As of 11:56 AM on Tuesday 27 Jan 2015 (Local Time) from TJSJ Reporting Station
Scattered Clouds Scattered Clouds  
Wind Chill: 86°   Ceiling: Unl
Heat Index: 91°   Visibility: 10mi
Dew Point: 71°   Wind: 9mph
Humidity: 61%   Direction: 160°SSE
Pressure: 30.01"   Gusts: NA
Location:  18.3885°N, 66.115°W
Report Text: TJSJ 271556Z 16008KT 10SM SCT038 SCT075 30/22 A3001 RMK AO2 SLP161 T03000217 $
Loading
Personal Weather Stations






























Interactive Weather Map New forecast layout! Learn more

10-Day Weather Forecast

Advertisements
Track Severe Weather on mobile